Time;durP1;ratioP1;P1;durP2;ratioP2;P2;SDS_P1;SDS_P2;PMS_P1;PMS_P2;Temp;Humidity;BMP_temperature;BMP_pressure;BME280_temperature;BME280_humidity;BME280_pressure;Samples;Min_cycle;Max_cycle;Signal;HPM_P1;HPM_P2
2023/02/01 00:00:25;;;;;;;4.63;4.28;;;;;;;5.08;100.00;101604.50;6118550;23;20482;-71
2023/02/01 00:02:52;;;;;;;7.40;5.32;;;;;;;5.12;100.00;101603.59;6143672;23;20025;-72
2023/02/01 00:05:18;;;;;;;5.32;5.10;;;;;;;5.30;100.00;101631.94;6112348;23;20029;-71
2023/02/01 00:07:48;;;;;;;5.13;4.78;;;;;;;5.20;100.00;101626.00;6171246;23;20504;-72
2023/02/01 00:10:15;;;;;;;6.05;5.57;;;;;;;4.86;100.00;101559.75;6116608;23;20093;-74
2023/02/01 00:12:41;;;;;;;6.85;5.35;;;;;;;4.96;100.00;101579.53;6174646;23;20024;-72
2023/02/01 00:15:08;;;;;;;14.40;5.20;;;;;;;4.96;100.00;101549.19;6154429;23;20301;-72
2023/02/01 00:17:34;;;;;;;6.35;5.88;;;;;;;4.95;100.00;101549.19;6143171;23;20095;-72
2023/02/01 00:20:01;;;;;;;4.85;4.65;;;;;;;5.10;100.00;101561.97;6173165;23;20032;-72
2023/02/01 00:22:27;;;;;;;6.47;4.80;;;;;;;5.46;100.00;101610.88;6147200;23;20033;-73
2023/02/01 00:24:53;;;;;;;5.07;4.15;;;;;;;5.48;100.00;101601.28;6143089;23;20064;-70
2023/02/01 00:27:21;;;;;;;4.68;4.32;;;;;;;4.80;100.00;101499.13;6119368;23;20043;-74
2023/02/01 00:29:47;;;;;;;17.02;4.85;;;;;;;5.20;100.00;101570.50;6168909;23;20410;-72
2023/02/01 00:32:14;;;;;;;4.38;4.07;;;;;;;5.22;100.00;101571.34;6141288;23;20345;-70
2023/02/01 00:34:40;;;;;;;10.20;4.88;;;;;;;5.43;100.00;101585.72;6100583;23;20027;-74
2023/02/01 00:37:07;;;;;;;6.38;5.43;;;;;;;5.07;100.00;101543.81;6169454;23;20028;-73
2023/02/01 00:39:33;;;;;;;7.45;4.78;;;;;;;5.15;100.00;101547.16;6142671;23;20453;-71
2023/02/01 00:42:01;;;;;;;8.20;4.70;;;;;;;4.00;100.00;101372.97;6170832;23;20048;-71
2023/02/01 00:44:27;;;;;;;6.53;5.03;;;;;;;4.50;100.00;101468.41;6142914;23;20028;-73
2023/02/01 00:46:54;;;;;;;16.17;4.57;;;;;;;5.12;100.00;101586.22;6141066;23;20025;-73
2023/02/01 00:49:20;;;;;;;6.45;5.00;;;;;;;5.06;100.00;101583.72;6156726;23;20013;-73
2023/02/01 00:51:47;;;;;;;4.97;4.53;;;;;;;4.70;100.00;101541.75;6145970;23;20657;-72
2023/02/01 00:54:13;;;;;;;9.23;5.32;;;;;;;4.84;100.00;101571.91;6143996;23;20083;-73
2023/02/01 00:56:40;;;;;;;8.55;4.22;;;;;;;4.50;100.00;101535.97;6145481;23;20447;-72
2023/02/01 00:59:10;;;;;;;3.97;3.78;;;;;;;4.60;100.00;101546.22;6142459;23;20024;-72
2023/02/01 01:01:36;;;;;;;3.60;3.40;;;;;;;4.05;100.00;101456.03;6122187;23;20029;-71
2023/02/01 01:04:03;;;;;;;15.40;4.43;;;;;;;4.57;100.00;101520.28;6138156;23;20013;-71
2023/02/01 01:06:32;;;;;;;19.60;3.72;;;;;;;4.64;100.00;101513.25;6140550;23;20028;-72
2023/02/01 01:09:00;;;;;;;4.45;4.15;;;;;;;4.66;100.00;101531.44;6134923;23;20047;-71
2023/02/01 01:11:29;;;;;;;3.95;3.65;;;;;;;4.68;100.00;101555.66;6167511;23;20012;-74
2023/02/01 01:13:58;;;;;;;3.85;3.65;;;;;;;4.48;100.00;101549.00;6143770;23;20028;-72
2023/02/01 01:16:27;;;;;;;3.20;3.10;;;;;;;4.29;100.00;101513.72;6170276;23;20150;-71
2023/02/01 01:18:54;;;;;;;4.55;4.25;;;;;;;4.25;100.00;101510.31;6143254;23;20157;-73
2023/02/01 01:21:21;;;;;;;4.68;4.35;;;;;;;4.46;100.00;101547.31;6157082;23;20349;-72
2023/02/01 01:23:47;;;;;;;3.85;3.53;;;;;;;4.49;100.00;101576.72;6144167;23;20471;-73
2023/02/01 01:26:17;;;;;;;3.67;3.47;;;;;;;4.48;100.00;101580.19;6166104;23;20643;-74
2023/02/01 01:28:44;;;;;;;6.25;4.18;;;;;;;4.53;100.00;101588.78;6115438;23;20036;-72
2023/02/01 01:31:12;;;;;;;3.38;3.28;;;;;;;3.72;100.00;101483.25;6140125;23;20039;-74
2023/02/01 01:33:39;;;;;;;3.70;3.50;;;;;;;4.23;100.00;101552.78;6171839;23;20035;-73
2023/02/01 01:36:07;;;;;;;4.10;3.80;;;;;;;3.95;100.00;101511.56;6143151;23;20808;-73
2023/02/01 01:38:35;;;;;;;20.63;4.63;;;;;;;3.84;100.00;101501.28;6140816;23;20561;-72
2023/02/01 01:41:01;;;;;;;3.33;3.22;;;;;;;4.03;100.00;101508.84;6167964;23;20041;-73
2023/02/01 01:43:56;;;;;;;5.15;4.75;;;;;;;4.42;100.00;101582.00;6143566;23;20013;-71
2023/02/01 01:46:26;;;;;;;4.35;4.10;;;;;;;4.41;100.00;101591.56;6144083;23;20489;-70
2023/02/01 01:49:14;;;;;;;3.33;3.22;;;;;;;4.29;100.00;101574.38;6139161;23;20016;-71
2023/02/01 01:51:55;;;;;;;10.13;4.40;;;;;;;4.26;100.00;101583.94;6146467;23;20083;-71
2023/02/01 01:54:33;;;;;;;5.00;4.22;;;;;;;4.27;100.00;101581.31;6141873;23;20038;-72
2023/02/01 01:57:09;;;;;;;4.32;3.92;;;;;;;4.30;100.00;101583.00;6167701;23;20031;-72
2023/02/01 01:59:40;;;;;;;4.07;3.85;;;;;;;4.37;100.00;101563.84;6143023;23;20071;-70
2023/02/01 02:02:07;;;;;;;3.97;3.72;;;;;;;4.26;100.00;101526.78;6170178;23;20024;-72
2023/02/01 02:04:34;;;;;;;3.40;3.28;;;;;;;4.37;100.00;101543.94;6142324;23;20086;-71
2023/02/01 02:07:05;;;;;;;4.05;3.30;;;;;;;4.44;100.00;101552.50;6134224;23;20345;-73
2023/02/01 02:09:31;;;;;;;3.30;3.20;;;;;;;4.12;100.00;101474.97;6140150;23;20029;-73
2023/02/01 02:11:58;;;;;;;3.55;3.45;;;;;;;4.38;100.00;101535.25;6135284;23;20037;-73
2023/02/01 02:14:26;;;;;;;4.18;3.70;;;;;;;4.47;100.00;101549.00;6142846;23;20016;-71
2023/02/01 02:17:09;;;;;;;3.92;3.72;;;;;;;3.86;100.00;101428.56;6167580;23;20095;-71
2023/02/01 02:20:05;;;;;;;3.33;3.17;;;;;;;4.54;100.00;101541.09;6141042;23;20080;-70
2023/02/01 02:23:22;;;;;;;3.72;3.53;;;;;;;4.60;100.00;101534.97;6161946;23;20088;-73
2023/02/01 02:26:03;;;;;;;3.28;3.17;;;;;;;4.03;100.00;101439.59;6138109;23;20033;-73
2023/02/01 02:29:00;;;;;;;19.20;3.42;;;;;;;3.55;100.00;101351.09;6116481;23;20009;-73
2023/02/01 02:31:43;;;;;;;3.17;3.08;;;;;;;4.51;100.00;101532.50;6142817;23;20267;-74
2023/02/01 02:34:19;;;;;;;3.42;3.30;;;;;;;4.50;100.00;101536.84;6138645;23;20024;-73
2023/02/01 02:36:58;;;;;;;4.20;3.80;;;;;;;4.60;100.00;101537.56;6140883;23;20058;-71
2023/02/01 02:39:53;;;;;;;3.50;3.30;;;;;;;4.62;100.00;101527.16;6167224;23;20021;-73
2023/02/01 02:48:40;;;;;;;3.63;3.45;;;;;;;3.75;100.00;101343.03;6140093;23;20049;-71
2023/02/01 03:05:23;;;;;;;3.10;2.90;;;;;;;4.02;100.00;101435.28;6142640;23;20025;-74
2023/02/01 03:08:08;;;;;;;11.15;4.55;;;;;;;4.46;100.00;101523.91;6169185;23;20028;-71
2023/02/01 03:10:44;;;;;;;3.83;3.65;;;;;;;4.08;100.00;101460.31;6139032;23;20025;-73
2023/02/01 03:13:38;;;;;;;3.72;3.53;;;;;;;4.32;100.00;101518.91;6165972;23;20073;-72
2023/02/01 03:16:18;;;;;;;3.72;3.53;;;;;;;4.40;100.00;101532.63;6143615;23;20035;-72
2023/02/01 03:18:57;;;;;;;4.28;3.67;;;;;;;4.29;100.00;101525.00;6137879;23;20135;-73
2023/02/01 03:21:28;;;;;;;3.88;3.65;;;;;;;4.18;100.00;101519.91;6143783;23;20041;-74
2023/02/01 03:23:59;;;;;;;4.78;4.40;;;;;;;4.19;100.00;101513.84;6144238;23;20623;-71
2023/02/01 03:26:28;;;;;;;3.20;3.10;;;;;;;4.10;100.00;101508.75;6173649;23;20030;-72
2023/02/01 03:29:02;;;;;;;3.58;3.38;;;;;;;4.23;100.00;101521.59;6145639;23;20017;-74
2023/02/01 03:31:28;;;;;;;3.90;3.70;;;;;;;3.95;100.00;101475.22;6172002;23;20564;-73
2023/02/01 03:33:55;;;;;;;4.10;3.80;;;;;;;4.11;100.00;101507.00;6146582;23;20025;-71
2023/02/01 03:36:40;;;;;;;6.65;4.85;;;;;;;4.15;100.00;101508.69;6144441;23;20688;-72
2023/02/01 03:39:16;;;;;;;5.22;3.58;;;;;;;4.10;100.00;101489.72;6170451;23;20033;-73
2023/02/01 03:41:52;;;;;;;4.68;4.32;;;;;;;4.17;100.00;101492.25;6145054;23;20025;-71
2023/02/01 03:44:25;;;;;;;3.80;3.60;;;;;;;3.99;100.00;101425.78;6170355;23;20965;-73
2023/02/01 03:47:13;;;;;;;4.00;3.80;;;;;;;4.00;100.00;101416.25;6143507;23;20078;-74
2023/02/01 03:49:43;;;;;;;4.32;4.13;;;;;;;4.68;100.00;101507.13;6146859;23;20171;-74
2023/02/01 03:52:17;;;;;;;4.57;4.20;;;;;;;4.34;100.00;101475.56;6119948;23;20526;-72
2023/02/01 03:54:46;;;;;;;4.82;4.45;;;;;;;4.29;100.00;101467.84;6140698;23;20028;-74
2023/02/01 03:57:19;;;;;;;11.30;4.97;;;;;;;4.66;100.00;101515.84;6144608;23;20013;-74
2023/02/01 03:59:45;;;;;;;3.78;3.58;;;;;;;4.67;100.00;101487.22;6144055;23;20497;-72
2023/02/01 04:02:12;;;;;;;3.85;3.65;;;;;;;4.31;100.00;101447.88;6144185;23;20033;-71
2023/02/01 04:04:38;;;;;;;4.28;4.05;;;;;;;4.60;100.00;101470.84;6140458;23;20115;-73
2023/02/01 04:07:05;;;;;;;3.65;3.45;;;;;;;4.71;100.00;101485.41;6145924;23;20025;-71
2023/02/01 04:09:31;;;;;;;3.28;3.17;;;;;;;4.47;100.00;101458.91;6142716;23;20044;-74
2023/02/01 04:11:58;;;;;;;4.00;3.80;;;;;;;4.85;100.00;101516.41;6142157;23;20057;-74
2023/02/01 04:14:24;;;;;;;3.90;3.70;;;;;;;4.46;100.00;101462.38;6147899;23;20033;-73
2023/02/01 04:16:51;;;;;;;5.85;3.72;;;;;;;4.88;100.00;101514.63;6143984;23;20014;-74
2023/02/01 04:19:17;;;;;;;3.65;3.45;;;;;;;4.83;100.00;101495.66;6120625;23;20166;-73
2023/02/01 04:21:44;;;;;;;4.15;3.88;;;;;;;4.79;100.00;101483.53;6140539;23;20087;-72
2023/02/01 04:24:10;;;;;;;4.72;4.32;;;;;;;4.94;100.00;101504.13;6139889;23;20081;-73
2023/02/01 04:26:37;;;;;;;5.10;4.25;;;;;;;4.90;100.00;101486.84;6145620;23;20744;-74
2023/02/01 04:29:03;;;;;;;13.15;4.00;;;;;;;5.00;100.00;101511.81;6111717;23;20061;-73
2023/02/01 04:31:30;;;;;;;6.47;3.83;;;;;;;4.35;100.00;101418.38;6161143;17;20549;-75
2023/02/01 04:33:57;;;;;;;20.63;4.25;;;;;;;4.44;100.00;101421.72;6130648;23;20462;-74
2023/02/01 04:36:26;;;;;;;3.60;3.40;;;;;;;4.37;100.00;101410.53;6096811;23;20087;-73
2023/02/01 04:38:52;;;;;;;3.55;3.35;;;;;;;4.24;100.00;101396.03;6127683;23;20047;-74
2023/02/01 04:41:20;;;;;;;4.50;3.90;;;;;;;3.96;100.00;101366.09;6109816;23;20022;-77
2023/02/01 04:43:46;;;;;;;3.55;3.38;;;;;;;4.05;100.00;101391.09;6110158;23;20561;-74
2023/02/01 04:46:13;;;;;;;3.15;3.05;;;;;;;4.38;100.00;101465.09;6101890;23;20030;-74
2023/02/01 04:48:40;;;;;;;3.42;3.33;;;;;;;4.31;100.00;101421.91;6106753;23;20029;-75
2023/02/01 04:51:06;;;;;;;3.70;3.40;;;;;;;3.86;100.00;101364.50;6072243;23;20027;-76
2023/02/01 04:53:33;;;;;;;3.63;3.42;;;;;;;3.98;100.00;101387.72;6128981;23;20043;-75
2023/02/01 04:55:59;;;;;;;3.38;2.97;;;;;;;3.90;100.00;101358.38;6096222;23;20411;-72
2023/02/01 04:58:26;;;;;;;3.03;2.92;;;;;;;4.12;100.00;101395.31;6126114;23;20016;-75
2023/02/01 05:00:52;;;;;;;3.15;3.05;;;;;;;4.36;100.00;101461.66;6101421;23;20018;-74
2023/02/01 05:03:18;;;;;;;3.72;3.53;;;;;;;4.00;100.00;101429.25;6107862;23;20472;-73
2023/02/01 05:05:47;;;;;;;14.60;3.72;;;;;;;3.79;100.00;101387.09;6101019;23;20096;-74
2023/02/01 05:08:14;;;;;;;3.42;3.20;;;;;;;3.82;100.00;101403.53;6072688;23;20113;-73
2023/02/01 05:10:40;;;;;;;3.70;3.50;;;;;;;3.82;100.00;101403.53;6124553;23;20344;-74
2023/02/01 05:15:55;;;;;;;3.38;3.17;;;;;;;4.08;100.00;101494.94;6090807;23;20132;-73
2023/02/01 05:18:21;;;;;;;3.00;2.90;;;;;;;3.73;100.00;101428.72;6070726;23;20145;-73
2023/02/01 05:20:48;;;;;;;3.20;3.10;;;;;;;3.34;100.00;101363.41;6094657;23;20026;-75
2023/02/01 05:23:14;;;;;;;4.40;4.07;;;;;;;3.69;100.00;101402.81;6108776;23;20107;-76
2023/02/01 05:25:41;;;;;;;5.00;4.57;;;;;;;4.08;100.00;101492.34;6121720;23;20029;-74
2023/02/01 05:28:07;;;;;;;4.65;4.20;;;;;;;3.87;100.00;101462.31;6098929;23;20034;-74
2023/02/01 05:30:35;;;;;;;4.50;4.20;;;;;;;3.81;100.00;101431.22;6116555;23;20021;-74
2023/02/01 05:33:02;;;;;;;5.65;3.15;;;;;;;4.13;100.00;101500.94;6096058;23;20508;-74
2023/02/01 05:35:28;;;;;;;3.30;3.10;;;;;;;4.01;100.00;101454.34;6125213;23;20521;-75
2023/02/01 05:37:55;;;;;;;3.28;3.17;;;;;;;4.14;100.00;101486.22;6067054;23;20137;-77
2023/02/01 05:40:21;;;;;;;3.60;3.40;;;;;;;4.07;100.00;101495.84;6095669;23;20016;-76
2023/02/01 05:42:48;;;;;;;3.65;3.45;;;;;;;3.62;100.00;101391.66;6132239;23;20096;-76
2023/02/01 05:45:14;;;;;;;3.63;3.30;;;;;;;4.06;100.00;101456.88;6098058;23;20391;-74
2023/02/01 05:47:41;;;;;;;7.43;3.35;;;;;;;3.88;100.00;101432.84;6104916;23;20526;-74
2023/02/01 05:50:08;;;;;;;8.32;4.70;;;;;;;3.51;100.00;101390.94;6069285;23;20030;-74
2023/02/01 05:52:35;;;;;;;3.20;3.10;;;;;;;3.24;100.00;101356.63;6130660;23;20016;-71
2023/02/01 05:55:01;;;;;;;3.40;3.20;;;;;;;3.69;100.00;101436.53;6096624;23;20084;-74
2023/02/01 05:57:28;;;;;;;3.13;3.03;;;;;;;3.59;100.00;101430.63;6088972;23;20584;-72
2023/02/01 05:59:54;;;;;;;3.33;3.13;;;;;;;3.43;100.00;101422.16;6073402;23;20036;-74
2023/02/01 06:02:21;;;;;;;3.85;3.65;;;;;;;2.73;100.00;101307.91;6100362;23;20037;-73
2023/02/01 06:04:48;;;;;;;4.97;3.42;;;;;;;3.38;100.00;101378.06;6129067;23;20467;-73
2023/02/01 06:07:14;;;;;;;3.95;3.65;;;;;;;3.66;100.00;101427.06;6100697;23;20340;-73
2023/02/01 06:09:41;;;;;;;4.40;4.00;;;;;;;3.86;100.00;101470.97;6091613;23;20029;-76
2023/02/01 06:12:07;;;;;;;3.35;3.25;;;;;;;3.17;100.00;101355.84;6097255;23;20025;-76
2023/02/01 06:14:33;;;;;;;3.45;3.25;;;;;;;3.49;100.00;101406.50;6096546;23;20062;-74
2023/02/01 06:17:00;;;;;;;9.80;4.47;;;;;;;3.44;100.00;101389.28;6119280;23;20376;-73
2023/02/01 06:19:26;;;;;;;3.10;3.00;;;;;;;3.77;100.00;101451.19;6094763;23;20040;-72
2023/02/01 06:21:53;;;;;;;3.20;3.10;;;;;;;3.63;100.00;101439.22;6124704;23;20057;-74
2023/02/01 06:24:19;;;;;;;4.05;3.45;;;;;;;3.93;100.00;101495.13;6096475;23;20018;-72
2023/02/01 06:26:46;;;;;;;3.25;3.05;;;;;;;3.93;100.00;101508.97;6094691;23;20172;-74
2023/02/01 06:29:12;;;;;;;3.92;3.65;;;;;;;3.99;100.00;101511.50;6067521;23;20030;-74
2023/02/01 06:31:40;;;;;;;9.45;3.70;;;;;;;2.88;100.00;101301.69;6101198;23;20060;-74
2023/02/01 06:34:06;;;;;;;3.30;3.10;;;;;;;3.81;100.00;101441.63;6092264;23;20014;-73
2023/02/01 06:36:33;;;;;;;8.98;3.45;;;;;;;3.74;100.00;101433.03;6102816;23;20471;-73
2023/02/01 06:38:59;;;;;;;3.60;3.40;;;;;;;3.54;100.00;101409.91;6064209;23;20012;-72
2023/02/01 06:41:26;;;;;;;3.33;3.13;;;;;;;3.71;100.00;101420.09;6122046;23;20064;-73
2023/02/01 06:43:55;;;;;;;6.07;3.40;;;;;;;3.95;100.00;101455.28;6098480;23;20213;-73
2023/02/01 06:46:21;;;;;;;4.32;4.03;;;;;;;2.85;100.00;101262.88;6097593;23;20029;-75
2023/02/01 06:48:49;;;;;;;4.30;4.00;;;;;;;3.68;100.00;101420.13;6101277;23;20166;-74
2023/02/01 06:51:20;;;;;;;3.55;3.25;;;;;;;4.10;100.00;101458.56;6085837;23;20030;-73
2023/02/01 06:53:46;;;;;;;10.18;3.40;;;;;;;3.85;100.00;101409.53;6076420;23;20039;-72
2023/02/01 06:56:13;;;;;;;3.83;3.63;;;;;;;3.83;100.00;101398.31;6093186;23;20091;-73
2023/02/01 06:58:39;;;;;;;4.13;3.90;;;;;;;4.10;100.00;101454.22;6085073;23;20583;-74
2023/02/01 07:01:07;;;;;;;10.68;3.40;;;;;;;4.50;100.00;101489.19;6068112;23;20021;-73
2023/02/01 07:03:34;;;;;;;12.68;3.30;;;;;;;4.46;100.00;101503.97;6106128;23;20094;-72
2023/02/01 07:06:00;;;;;;;3.97;3.75;;;;;;;4.34;100.00;101479.00;6092383;23;20034;-73
2023/02/01 07:08:28;;;;;;;3.70;3.50;;;;;;;4.36;100.00;101494.59;6124606;23;20100;-73
2023/02/01 07:10:54;;;;;;;15.40;3.85;;;;;;;4.03;100.00;101425.75;6093220;23;20061;-72
2023/02/01 07:13:20;;;;;;;4.57;3.60;;;;;;;4.05;100.00;101444.75;6095716;23;20029;-74
2023/02/01 07:15:47;;;;;;;4.32;3.92;;;;;;;4.13;100.00;101479.28;6097814;23;20136;-77
2023/02/01 07:18:15;;;;;;;3.85;3.70;;;;;;;3.92;100.00;101444.06;6098279;23;20288;-78
2023/02/01 07:20:42;;;;;;;4.30;4.10;;;;;;;4.04;100.00;101471.63;6091501;23;20014;-76
2023/02/01 07:23:10;;;;;;;15.02;4.75;;;;;;;4.22;100.00;101489.56;6127193;23;20029;-76
2023/02/01 07:25:36;;;;;;;4.75;3.25;;;;;;;4.21;100.00;101490.47;6065869;23;20343;-77
2023/02/01 07:28:03;;;;;;;4.25;3.88;;;;;;;4.03;100.00;101451.72;6116702;23;20436;-77
2023/02/01 07:30:29;;;;;;;3.97;3.63;;;;;;;4.39;100.00;101491.97;6088729;23;20519;-76
2023/02/01 07:32:59;;;;;;;3.53;3.33;;;;;;;3.54;100.00;101375.31;6100948;23;20029;-76
2023/02/01 07:35:25;;;;;;;3.72;3.53;;;;;;;4.48;100.00;101545.53;6056258;23;20347;-76
2023/02/01 07:37:52;;;;;;;3.80;3.60;;;;;;;3.83;100.00;101424.28;6104391;23;20524;-78
2023/02/01 07:40:18;;;;;;;3.50;3.35;;;;;;;4.28;100.00;101494.69;6064850;23;20028;-77
2023/02/01 07:42:44;;;;;;;4.35;3.95;;;;;;;4.00;100.00;101447.44;6088388;23;20026;-77
2023/02/01 07:45:13;;;;;;;9.98;5.72;;;;;;;4.56;100.00;101546.28;6057663;23;20048;-75
2023/02/01 07:47:47;;;;;;;10.40;3.53;;;;;;;3.55;100.00;101374.44;6096664;23;20308;-75
2023/02/01 07:50:13;;;;;;;3.95;3.72;;;;;;;3.90;100.00;101441.47;6069904;23;20045;-77
2023/02/01 07:52:40;;;;;;;3.28;3.17;;;;;;;3.37;100.00;101360.81;6069676;23;20104;-76
2023/02/01 07:55:07;;;;;;;4.07;2.95;;;;;;;3.70;100.00;101399.34;6068683;23;20032;-76
2023/02/01 07:57:34;;;;;;;3.38;2.97;;;;;;;4.04;100.00;101477.66;6067263;23;20024;-77
2023/02/01 08:02:45;;;;;;;3.20;3.10;;;;;;;4.18;100.00;101493.09;6094460;23;20528;-77
2023/02/01 08:05:12;;;;;;;9.85;4.30;;;;;;;3.72;100.00;101427.00;6109071;23;20040;-77
2023/02/01 08:07:38;;;;;;;3.63;3.42;;;;;;;3.92;100.00;101451.88;6061101;23;20448;-79
2023/02/01 08:10:10;;;;;;;3.83;3.63;;;;;;;4.11;100.00;101488.84;6116565;23;20030;-77
2023/02/01 08:12:37;;;;;;;3.03;2.92;;;;;;;3.53;100.00;101390.03;6090664;23;20095;-76
2023/02/01 08:15:04;;;;;;;10.32;5.25;;;;;;;4.47;100.00;101556.81;6106358;23;20505;-79
2023/02/01 08:17:30;;;;;;;6.82;3.90;;;;;;;4.49;100.00;101558.53;6060342;23;20069;-79
2023/02/01 08:19:57;;;;;;;3.70;3.40;;;;;;;3.66;100.00;101400.25;6116151;23;20025;-77
2023/02/01 08:22:23;;;;;;;3.80;3.50;;;;;;;3.43;100.00;101366.78;6088947;23;20022;-77
2023/02/01 08:24:50;;;;;;;4.75;4.25;;;;;;;4.24;100.00;101493.00;6062220;23;20034;-77
2023/02/01 08:27:17;;;;;;;3.30;3.20;;;;;;;4.54;100.00;101546.31;6097001;23;20112;-76
2023/02/01 08:29:43;;;;;;;4.32;4.03;;;;;;;4.09;100.00;101462.03;6089171;23;20034;-78
2023/02/01 08:32:10;;;;;;;3.20;3.10;;;;;;;4.44;100.00;101523.06;6093939;23;20487;-77
2023/02/01 08:34:36;;;;;;;16.77;4.72;;;;;;;3.96;100.00;101469.97;6083282;23;20070;-77
2023/02/01 08:37:02;;;;;;;3.70;3.50;;;;;;;4.23;100.00;101522.47;6101737;23;20485;-79
2023/02/01 08:39:29;;;;;;;3.00;2.90;;;;;;;4.35;100.00;101530.13;6071222;23;20021;-77
2023/02/01 08:44:40;;;;;;;11.07;4.13;;;;;;;0.81;100.00;100975.78;6098452;23;20187;-76
2023/02/01 08:47:06;;;;;;;4.15;3.60;;;;;;;3.86;100.00;101447.59;6125427;23;20328;-77
2023/02/01 08:49:33;;;;;;;3.72;3.35;;;;;;;3.79;100.00;101422.59;6099271;23;20420;-78
2023/02/01 08:51:59;;;;;;;5.32;3.75;;;;;;;4.63;100.00;101571.34;6098053;23;20020;-79
2023/02/01 08:54:32;;;;;;;;;;;;;;;4.93;100.00;101592.56;6095617;23;20048;-75
2023/02/01 08:56:58;;;;;;;6.22;3.72;;;;;;;4.90;100.00;101570.06;6070476;23;19906;-76
2023/02/01 08:59:25;;;;;;;4.13;3.88;;;;;;;4.75;100.00;101567.69;6102790;23;20352;-74
2023/02/01 09:01:55;;;;;;;5.65;3.80;;;;;;;4.99;100.00;101582.06;6096675;23;20089;-77
2023/02/01 09:04:22;;;;;;;3.40;3.20;;;;;;;4.75;100.00;101550.38;6101598;23;20013;-77
2023/02/01 09:06:48;;;;;;;3.90;3.60;;;;;;;4.38;100.00;101501.47;6100589;23;20111;-77
2023/02/01 09:09:15;;;;;;;5.18;4.15;;;;;;;4.90;100.00;101564.88;6090838;23;20017;-74
2023/02/01 09:11:41;;;;;;;17.40;4.80;;;;;;;4.65;100.00;101530.59;6099004;23;20026;-77
2023/02/01 09:14:08;;;;;;;14.18;4.65;;;;;;;4.46;100.00;101490.97;6093736;23;20026;-76
2023/02/01 09:16:34;;;;;;;4.05;3.85;;;;;;;5.14;100.00;101591.41;6095389;23;20295;-76
2023/02/01 09:19:00;;;;;;;4.30;3.95;;;;;;;5.03;100.00;101581.16;6100899;23;20010;-77
2023/02/01 09:21:47;;;;;;;4.50;3.90;;;;;;;4.38;100.00;101472.88;6073599;23;20116;-75
2023/02/01 09:24:13;;;;;;;4.28;4.00;;;;;;;4.93;100.00;101577.84;6116432;23;20017;-78
2023/02/01 09:26:40;;;;;;;4.53;4.18;;;;;;;4.84;100.00;101556.31;6071126;23;20056;-76
2023/02/01 09:29:12;;;;;;;16.50;6.10;;;;;;;3.78;100.00;101384.53;6092194;23;20442;-78
2023/02/01 09:31:39;;;;;;;13.57;4.07;;;;;;;4.61;100.00;101523.72;6072535;23;20393;-77
2023/02/01 09:34:12;;;;;;;3.50;3.30;;;;;;;4.76;100.00;101539.06;6098845;23;20346;-77
2023/02/01 09:36:38;;;;;;;3.97;3.78;;;;;;;4.98;100.00;101568.22;6079031;23;20066;-77
2023/02/01 09:39:04;;;;;;;9.85;4.85;;;;;;;4.84;100.00;101531.16;6096534;23;20030;-78
2023/02/01 09:42:05;;;;;;;3.90;3.70;;;;;;;5.24;100.00;101592.13;6067536;23;20538;-77
2023/02/01 09:44:38;;;;;;;11.98;4.15;;;;;;;4.48;100.00;101455.41;6094989;23;20034;-78
2023/02/01 09:47:22;;;;;;;7.35;4.20;;;;;;;4.84;100.00;101514.69;6122355;23;20120;-78
2023/02/01 09:50:16;;;;;;;4.28;3.88;;;;;;;5.29;100.00;101585.09;6095970;23;20153;-76
2023/02/01 09:52:51;;;;;;;4.18;3.85;;;;;;;5.10;100.00;101569.78;6129416;23;20032;-76
2023/02/01 09:55:42;;;;;;;10.05;5.30;;;;;;;5.07;100.00;101541.22;6067218;23;20022;-77
2023/02/01 09:58:17;;;;;;;3.92;3.70;;;;;;;4.23;100.00;101433.25;6093824;23;20032;-76
2023/02/01 10:00:56;;;;;;;3.65;3.45;;;;;;;4.69;100.00;101480.25;6106352;23;20019;-77
2023/02/01 10:03:29;;;;;;;3.42;3.25;;;;;;;4.69;100.00;101467.25;6101544;23;20017;-75
2023/02/01 10:06:14;;;;;;;6.03;4.38;;;;;;;5.38;100.00;101554.56;6102858;23;20021;-78
2023/02/01 10:08:56;;;;;;;3.78;3.58;;;;;;;5.60;100.00;101575.91;6092864;23;20028;-77
2023/02/01 10:11:49;;;;;;;4.20;3.90;;;;;;;5.56;100.00;101570.78;6092245;23;20028;-80
2023/02/01 10:14:33;;;;;;;4.03;3.83;;;;;;;4.94;100.00;101461.66;6094470;23;20022;-78
2023/02/01 10:17:12;;;;;;;8.35;4.43;;;;;;;5.83;100.00;101569.41;6084706;23;20318;-75
2023/02/01 10:19:56;;;;;;;6.38;4.60;;;;;;;5.86;100.00;101571.97;6090087;23;20359;-75
2023/02/01 10:22:48;;;;;;;5.03;4.63;;;;;;;5.94;100.00;101567.47;6099665;23;20577;-75
2023/02/01 10:25:54;;;;;;;7.28;3.63;;;;;;;6.03;100.00;101513.50;6074322;23;20029;-77
2023/02/01 10:28:22;;;;;;;10.48;5.97;;;;;;;6.21;100.00;101541.78;6085563;23;20128;-76
2023/02/01 10:30:56;;;;;;;3.50;3.33;;;;;;;6.42;98.96;101556.13;6071710;23;20169;-77
2023/02/01 10:33:33;;;;;;;6.38;4.65;;;;;;;6.28;98.87;101542.53;6097537;23;20040;-76
2023/02/01 10:36:17;;;;;;;5.85;3.53;;;;;;;6.31;98.38;101552.88;6092566;23;20026;-77
2023/02/01 10:38:44;;;;;;;3.92;3.63;;;;;;;6.17;98.27;101496.69;6118967;23;20019;-76
2023/02/01 10:41:17;;;;;;;4.43;4.10;;;;;;;6.13;97.65;101473.31;6098219;23;20428;-76
2023/02/01 10:43:48;;;;;;;3.83;3.60;;;;;;;6.21;97.34;101454.91;6098339;23;20025;-77
2023/02/01 10:46:14;;;;;;;4.60;4.30;;;;;;;5.68;95.76;101379.59;6122530;23;20093;-78
2023/02/01 10:48:41;;;;;;;6.40;4.85;;;;;;;6.44;95.67;101538.72;6089788;23;20301;-77
2023/02/01 10:51:24;;;;;;;4.43;3.97;;;;;;;5.44;95.64;101367.94;6072556;23;20034;-78
2023/02/01 10:53:58;;;;;;;3.63;3.40;;;;;;;6.13;95.32;101465.50;6068031;23;20049;-77
2023/02/01 10:56:27;;;;;;;3.80;3.60;;;;;;;5.40;95.80;101348.91;6104741;23;20478;-79
2023/02/01 10:59:14;;;;;;;9.63;4.22;;;;;;;6.48;95.17;101535.13;6072877;23;20032;-78
2023/02/01 11:01:44;;;;;;;3.75;3.58;;;;;;;6.29;96.19;101532.06;6099835;23;20032;-77
2023/02/01 11:04:14;;;;;;;14.52;4.45;;;;;;;6.36;96.04;101532.81;6094799;23;20048;-78
2023/02/01 11:06:43;;;;;;;4.38;4.03;;;;;;;4.99;96.02;101293.34;6073919;23;20028;-75
2023/02/01 11:09:21;;;;;;;3.58;3.47;;;;;;;6.35;97.18;101523.25;6066356;23;20077;-77
2023/02/01 11:11:47;;;;;;;5.05;4.65;;;;;;;6.35;96.55;101510.22;6114321;23;20028;-76
2023/02/01 11:14:19;;;;;;;4.40;4.10;;;;;;;6.43;97.15;101507.44;6095822;23;20422;-78
2023/02/01 11:16:53;;;;;;;4.88;4.15;;;;;;;5.75;97.67;101394.19;6090978;23;20262;-77
2023/02/01 11:19:19;;;;;;;6.07;5.28;;;;;;;6.01;96.53;101424.09;6072976;23;20417;-76
2023/02/01 11:21:59;;;;;;;7.47;3.97;;;;;;;6.17;97.12;101441.97;6103816;23;20025;-76
2023/02/01 11:24:32;;;;;;;4.28;3.92;;;;;;;6.31;96.07;101456.44;6092349;23;20396;-77
2023/02/01 11:27:01;;;;;;;4.22;4.03;;;;;;;6.65;94.96;101503.47;6089147;23;20024;-76
2023/02/01 11:29:38;;;;;;;4.32;3.97;;;;;;;6.62;95.20;101474.84;6093889;23;20025;-76
2023/02/01 11:32:04;;;;;;;;;;;;;;;6.76;94.25;101493.66;6118418;23;20188;-75
2023/02/01 11:34:41;;;;;;;5.70;3.72;;;;;;;6.83;92.90;101475.22;6072801;23;19983;-75
2023/02/01 11:37:18;;;;;;;4.18;3.97;;;;;;;6.72;92.78;101460.69;6090448;23;20013;-76
2023/02/01 11:39:56;;;;;;;11.65;4.25;;;;;;;6.67;93.49;101466.91;6064035;23;20021;-77
2023/02/01 11:42:24;;;;;;;5.05;4.53;;;;;;;6.16;93.63;101392.47;6070388;23;20147;-77
2023/02/01 11:44:51;;;;;;;6.82;5.28;;;;;;;6.32;93.78;101406.88;6098776;23;20021;-77
2023/02/01 11:47:25;;;;;;;4.63;4.32;;;;;;;5.68;93.83;101320.56;6096745;23;20022;-77
2023/02/01 11:49:57;;;;;;;4.13;3.90;;;;;;;6.41;93.12;101449.25;6090178;23;20026;-76
2023/02/01 11:52:59;;;;;;;3.72;3.53;;;;;;;6.57;93.35;101434.97;6103595;23;20408;-76
2023/02/01 11:55:37;;;;;;;4.25;3.85;;;;;;;6.62;93.61;101434.88;5992813;23;20015;-77
2023/02/01 11:58:22;;;;;;;12.52;3.35;;;;;;;6.57;93.92;101443.69;6098123;23;20158;-77
2023/02/01 12:01:03;;;;;;;14.88;4.82;;;;;;;6.64;94.73;101436.56;6095673;23;20036;-78
2023/02/01 12:03:56;;;;;;;4.10;3.85;;;;;;;6.66;94.70;101439.97;6073033;23;20067;-78
2023/02/01 12:06:50;;;;;;;5.77;5.37;;;;;;;6.28;93.52;101381.78;6104483;23;20492;-76
2023/02/01 12:09:38;;;;;;;11.35;6.00;;;;;;;6.72;94.14;101426.78;6120188;23;20028;-76
2023/02/01 12:12:19;;;;;;;10.65;4.53;;;;;;;6.78;93.65;101421.41;6069574;23;20038;-78